sensor_id;sensor_type;location;lat;lon;timestamp;temperature;humidity
11961;DHT22;6040;49.358;11.140;2023-05-07T00:02:07;11.30;99.90
11961;DHT22;6040;49.358;11.140;2023-05-07T00:04:33;11.30;99.90
11961;DHT22;6040;49.358;11.140;2023-05-07T00:07:03;11.30;99.90
11961;DHT22;6040;49.358;11.140;2023-05-07T00:09:31;11.20;99.90
11961;DHT22;6040;49.358;11.140;2023-05-07T00:11:58;11.20;99.90
11961;DHT22;6040;49.358;11.140;2023-05-07T00:14:25;11.20;99.90
11961;DHT22;6040;49.358;11.140;2023-05-07T00:16:52;11.20;99.90
11961;DHT22;6040;49.358;11.140;2023-05-07T00:19:18;11.20;99.90
11961;DHT22;6040;49.358;11.140;2023-05-07T00:21:45;11.20;99.90
11961;DHT22;6040;49.358;11.140;2023-05-07T00:24:12;11.20;99.90
11961;DHT22;6040;49.358;11.140;2023-05-07T00:26:40;11.20;99.90
11961;DHT22;6040;49.358;11.140;2023-05-07T00:29:07;11.20;99.90
11961;DHT22;6040;49.358;11.140;2023-05-07T00:31:34;13.40;99.90
11961;DHT22;6040;49.358;11.140;2023-05-07T00:34:01;11.30;99.90
11961;DHT22;6040;49.358;11.140;2023-05-07T00:36:27;11.30;99.90
11961;DHT22;6040;49.358;11.140;2023-05-07T00:38:54;11.40;99.90
11961;DHT22;6040;49.358;11.140;2023-05-07T00:41:21;11.40;99.90
11961;DHT22;6040;49.358;11.140;2023-05-07T00:43:49;11.40;99.90
11961;DHT22;6040;49.358;11.140;2023-05-07T00:46:18;11.40;99.90
11961;DHT22;6040;49.358;11.140;2023-05-07T00:48:45;12.60;99.90
11961;DHT22;6040;49.358;11.140;2023-05-07T00:51:12;11.40;99.90
11961;DHT22;6040;49.358;11.140;2023-05-07T00:53:39;11.00;99.90
11961;DHT22;6040;49.358;11.140;2023-05-07T00:56:06;11.50;99.90
11961;DHT22;6040;49.358;11.140;2023-05-07T00:58:33;11.50;99.90
11961;DHT22;6040;49.358;11.140;2023-05-07T01:01:02;12.80;99.90
11961;DHT22;6040;49.358;11.140;2023-05-07T01:03:29;11.60;99.90
11961;DHT22;6040;49.358;11.140;2023-05-07T01:05:56;12.90;99.90
11961;DHT22;6040;49.358;11.140;2023-05-07T01:08:24;11.20;99.90
11961;DHT22;6040;49.358;11.140;2023-05-07T01:10:54;11.20;99.90
11961;DHT22;6040;49.358;11.140;2023-05-07T01:13:21;11.20;99.90
11961;DHT22;6040;49.358;11.140;2023-05-07T01:15:48;11.70;99.90
11961;DHT22;6040;49.358;11.140;2023-05-07T01:18:16;11.80;99.90
11961;DHT22;6040;49.358;11.140;2023-05-07T01:20:43;11.40;99.90
11961;DHT22;6040;49.358;11.140;2023-05-07T01:23:11;11.30;99.90
11961;DHT22;6040;49.358;11.140;2023-05-07T01:25:39;11.70;99.90
11961;DHT22;6040;49.358;11.140;2023-05-07T01:28:05;11.30;99.90
11961;DHT22;6040;49.358;11.140;2023-05-07T01:30:33;11.20;99.90
11961;DHT22;6040;49.358;11.140;2023-05-07T01:33:04;11.70;99.90
11961;DHT22;6040;49.358;11.140;2023-05-07T01:35:37;11.70;99.90
11961;DHT22;6040;49.358;11.140;2023-05-07T01:38:05;11.70;99.90
11961;DHT22;6040;49.358;11.140;2023-05-07T01:40:34;11.40;99.90
11961;DHT22;6040;49.358;11.140;2023-05-07T01:43:02;11.70;99.90
11961;DHT22;6040;49.358;11.140;2023-05-07T01:45:30;11.80;99.90
11961;DHT22;6040;49.358;11.140;2023-05-07T01:47:58;11.80;99.90
11961;DHT22;6040;49.358;11.140;2023-05-07T01:50:25;11.40;99.90
11961;DHT22;6040;49.358;11.140;2023-05-07T01:52:52;12.70;99.90
11961;DHT22;6040;49.358;11.140;2023-05-07T01:55:19;11.70;99.90
11961;DHT22;6040;49.358;11.140;2023-05-07T01:57:47;11.70;99.90
11961;DHT22;6040;49.358;11.140;2023-05-07T02:00:14;11.70;99.90
11961;DHT22;6040;49.358;11.140;2023-05-07T02:02:41;11.70;99.90
11961;DHT22;6040;49.358;11.140;2023-05-07T02:05:08;11.60;99.90
11961;DHT22;6040;49.358;11.140;2023-05-07T02:07:35;11.60;99.90
11961;DHT22;6040;49.358;11.140;2023-05-07T02:10:02;11.60;99.90
11961;DHT22;6040;49.358;11.140;2023-05-07T02:12:29;11.70;99.90
11961;DHT22;6040;49.358;11.140;2023-05-07T02:14:57;11.40;99.90
11961;DHT22;6040;49.358;11.140;2023-05-07T02:17:24;12.50;99.90
11961;DHT22;6040;49.358;11.140;2023-05-07T02:19:51;11.60;99.90
11961;DHT22;6040;49.358;11.140;2023-05-07T02:22:18;13.00;99.90
11961;DHT22;6040;49.358;11.140;2023-05-07T02:24:45;11.70;99.90
11961;DHT22;6040;49.358;11.140;2023-05-07T02:27:11;11.60;99.90
11961;DHT22;6040;49.358;11.140;2023-05-07T02:29:38;11.50;99.90
11961;DHT22;6040;49.358;11.140;2023-05-07T02:32:06;11.50;99.90
11961;DHT22;6040;49.358;11.140;2023-05-07T02:34:33;11.40;99.90
11961;DHT22;6040;49.358;11.140;2023-05-07T02:37:00;11.80;99.90
11961;DHT22;6040;49.358;11.140;2023-05-07T02:39:27;11.40;99.90
11961;DHT22;6040;49.358;11.140;2023-05-07T02:41:53;12.50;99.90
11961;DHT22;6040;49.358;11.140;2023-05-07T02:44:20;11.30;99.90
11961;DHT22;6040;49.358;11.140;2023-05-07T02:46:47;11.30;99.90
11961;DHT22;6040;49.358;11.140;2023-05-07T02:49:15;11.30;99.90
11961;DHT22;6040;49.358;11.140;2023-05-07T02:51:42;10.80;99.90
11961;DHT22;6040;49.358;11.140;2023-05-07T02:54:09;12.60;99.90
11961;DHT22;6040;49.358;11.140;2023-05-07T02:56:35;10.80;99.90
11961;DHT22;6040;49.358;11.140;2023-05-07T02:59:02;11.20;99.90
11961;DHT22;6040;49.358;11.140;2023-05-07T03:01:29;12.30;99.90
11961;DHT22;6040;49.358;11.140;2023-05-07T03:03:56;11.10;99.90
11961;DHT22;6040;49.358;11.140;2023-05-07T03:06:24;12.10;99.90
11961;DHT22;6040;49.358;11.140;2023-05-07T03:08:51;11.60;99.90
11961;DHT22;6040;49.358;11.140;2023-05-07T03:11:18;11.00;99.90
11961;DHT22;6040;49.358;11.140;2023-05-07T03:13:45;10.60;99.90
11961;DHT22;6040;49.358;11.140;2023-05-07T03:16:12;11.00;99.90
11961;DHT22;6040;49.358;11.140;2023-05-07T03:18:38;11.00;99.90
11961;DHT22;6040;49.358;11.140;2023-05-07T03:21:05;11.00;99.90
11961;DHT22;6040;49.358;11.140;2023-05-07T03:23:33;10.90;99.90
11961;DHT22;6040;49.358;11.140;2023-05-07T03:26:00;10.90;99.90
11961;DHT22;6040;49.358;11.140;2023-05-07T03:28:27;10.90;99.90
11961;DHT22;6040;49.358;11.140;2023-05-07T03:30:54;10.90;99.90
11961;DHT22;6040;49.358;11.140;2023-05-07T03:33:20;10.90;99.90
11961;DHT22;6040;49.358;11.140;2023-05-07T03:35:47;10.90;99.90
11961;DHT22;6040;49.358;11.140;2023-05-07T03:38:14;10.80;99.90
11961;DHT22;6040;49.358;11.140;2023-05-07T03:40:42;10.50;99.90
11961;DHT22;6040;49.358;11.140;2023-05-07T03:43:09;10.80;99.90
11961;DHT22;6040;49.358;11.140;2023-05-07T03:45:36;10.80;99.90
11961;DHT22;6040;49.358;11.140;2023-05-07T03:48:03;10.40;99.90
11961;DHT22;6040;49.358;11.140;2023-05-07T03:50:30;10.80;99.90
11961;DHT22;6040;49.358;11.140;2023-05-07T03:52:57;10.80;99.90
11961;DHT22;6040;49.358;11.140;2023-05-07T03:55:24;10.80;99.90
11961;DHT22;6040;49.358;11.140;2023-05-07T03:57:52;12.20;99.90
11961;DHT22;6040;49.358;11.140;2023-05-07T04:00:19;10.90;99.90
11961;DHT22;6040;49.358;11.140;2023-05-07T04:02:47;10.90;99.90
11961;DHT22;6040;49.358;11.140;2023-05-07T04:05:14;10.50;99.90
11961;DHT22;6040;49.358;11.140;2023-05-07T04:07:41;10.90;99.90
11961;DHT22;6040;49.358;11.140;2023-05-07T04:10:09;10.80;99.90
11961;DHT22;6040;49.358;11.140;2023-05-07T04:12:36;10.90;99.90
11961;DHT22;6040;49.358;11.140;2023-05-07T04:15:05;10.80;99.90
11961;DHT22;6040;49.358;11.140;2023-05-07T04:17:32;10.90;99.90
11961;DHT22;6040;49.358;11.140;2023-05-07T04:19:58;10.80;99.90
11961;DHT22;6040;49.358;11.140;2023-05-07T04:22:25;10.90;99.90
11961;DHT22;6040;49.358;11.140;2023-05-07T04:24:52;10.90;99.90
11961;DHT22;6040;49.358;11.140;2023-05-07T04:27:19;11.00;99.90
11961;DHT22;6040;49.358;11.140;2023-05-07T04:29:46;11.30;99.90
11961;DHT22;6040;49.358;11.140;2023-05-07T04:32:14;11.00;99.90
11961;DHT22;6040;49.358;11.140;2023-05-07T04:34:41;11.10;99.90
11961;DHT22;6040;49.358;11.140;2023-05-07T04:37:08;11.70;99.90
11961;DHT22;6040;49.358;11.140;2023-05-07T04:39:35;11.10;99.90
11961;DHT22;6040;49.358;11.140;2023-05-07T04:42:02;11.20;99.90
11961;DHT22;6040;49.358;11.140;2023-05-07T04:44:29;11.20;99.90
11961;DHT22;6040;49.358;11.140;2023-05-07T04:46:56;11.40;99.90
11961;DHT22;6040;49.358;11.140;2023-05-07T04:49:24;11.30;99.90
11961;DHT22;6040;49.358;11.140;2023-05-07T04:51:51;11.30;99.90
11961;DHT22;6040;49.358;11.140;2023-05-07T04:54:18;11.30;99.90
11961;DHT22;6040;49.358;11.140;2023-05-07T04:56:45;11.50;99.90
11961;DHT22;6040;49.358;11.140;2023-05-07T04:59:11;11.50;99.90
11961;DHT22;6040;49.358;11.140;2023-05-07T05:01:38;11.50;99.90
11961;DHT22;6040;49.358;11.140;2023-05-07T05:04:05;11.20;99.90
11961;DHT22;6040;49.358;11.140;2023-05-07T05:06:34;11.70;99.90
11961;DHT22;6040;49.358;11.140;2023-05-07T05:09:00;11.60;99.90
11961;DHT22;6040;49.358;11.140;2023-05-07T05:11:28;11.90;99.90
11961;DHT22;6040;49.358;11.140;2023-05-07T05:13:55;12.00;99.90
11961;DHT22;6040;49.358;11.140;2023-05-07T05:16:22;11.60;99.90
11961;DHT22;6040;49.358;11.140;2023-05-07T05:18:48;12.10;99.90
11961;DHT22;6040;49.358;11.140;2023-05-07T05:21:17;11.90;99.90
11961;DHT22;6040;49.358;11.140;2023-05-07T05:23:45;12.60;99.90
11961;DHT22;6040;49.358;11.140;2023-05-07T05:26:12;12.20;99.90
11961;DHT22;6040;49.358;11.140;2023-05-07T05:28:39;12.40;99.90
11961;DHT22;6040;49.358;11.140;2023-05-07T05:31:05;13.50;99.90
11961;DHT22;6040;49.358;11.140;2023-05-07T05:33:32;14.60;99.90
11961;DHT22;6040;49.358;11.140;2023-05-07T05:35:59;16.10;99.90
11961;DHT22;6040;49.358;11.140;2023-05-07T05:38:26;15.80;99.90
11961;DHT22;6040;49.358;11.140;2023-05-07T05:40:54;15.80;99.90
11961;DHT22;6040;49.358;11.140;2023-05-07T05:43:22;15.50;99.90
11961;DHT22;6040;49.358;11.140;2023-05-07T05:45:49;15.40;99.90
11961;DHT22;6040;49.358;11.140;2023-05-07T05:48:16;15.20;99.90
11961;DHT22;6040;49.358;11.140;2023-05-07T05:50:43;16.00;99.90
11961;DHT22;6040;49.358;11.140;2023-05-07T05:53:10;14.70;99.90
11961;DHT22;6040;49.358;11.140;2023-05-07T05:55:37;14.60;99.90
11961;DHT22;6040;49.358;11.140;2023-05-07T05:58:05;14.90;99.90
11961;DHT22;6040;49.358;11.140;2023-05-07T06:00:32;14.50;99.90
11961;DHT22;6040;49.358;11.140;2023-05-07T06:02:58;14.50;99.90
11961;DHT22;6040;49.358;11.140;2023-05-07T06:05:25;15.00;99.90
11961;DHT22;6040;49.358;11.140;2023-05-07T06:07:52;14.30;99.90
11961;DHT22;6040;49.358;11.140;2023-05-07T06:10:19;14.30;99.90
11961;DHT22;6040;49.358;11.140;2023-05-07T06:12:46;14.30;99.90
11961;DHT22;6040;49.358;11.140;2023-05-07T06:15:14;14.40;99.90
11961;DHT22;6040;49.358;11.140;2023-05-07T06:17:41;14.40;99.90
11961;DHT22;6040;49.358;11.140;2023-05-07T06:20:08;15.30;99.90
11961;DHT22;6040;49.358;11.140;2023-05-07T06:22:35;14.50;99.90
11961;DHT22;6040;49.358;11.140;2023-05-07T06:25:02;14.40;99.90
11961;DHT22;6040;49.358;11.140;2023-05-07T06:27:29;14.50;99.90
11961;DHT22;6040;49.358;11.140;2023-05-07T06:29:55;14.50;99.90
11961;DHT22;6040;49.358;11.140;2023-05-07T06:32:24;14.50;99.90
11961;DHT22;6040;49.358;11.140;2023-05-07T06:34:51;14.60;99.90
11961;DHT22;6040;49.358;11.140;2023-05-07T06:37:17;14.70;99.90
11961;DHT22;6040;49.358;11.140;2023-05-07T06:39:44;14.70;99.90
11961;DHT22;6040;49.358;11.140;2023-05-07T06:42:11;14.50;99.90
11961;DHT22;6040;49.358;11.140;2023-05-07T06:44:38;14.90;99.90
11961;DHT22;6040;49.358;11.140;2023-05-07T06:47:05;15.00;99.90
11961;DHT22;6040;49.358;11.140;2023-05-07T06:49:33;15.00;99.90
11961;DHT22;6040;49.358;11.140;2023-05-07T06:52:00;15.00;99.90
11961;DHT22;6040;49.358;11.140;2023-05-07T06:54:26;15.10;99.90
11961;DHT22;6040;49.358;11.140;2023-05-07T06:56:53;15.20;99.90
11961;DHT22;6040;49.358;11.140;2023-05-07T06:59:20;15.30;99.90
11961;DHT22;6040;49.358;11.140;2023-05-07T07:01:47;15.50;99.90
11961;DHT22;6040;49.358;11.140;2023-05-07T07:04:14;15.60;99.90
11961;DHT22;6040;49.358;11.140;2023-05-07T07:06:42;15.80;99.90
11961;DHT22;6040;49.358;11.140;2023-05-07T07:09:09;16.10;99.90
11961;DHT22;6040;49.358;11.140;2023-05-07T07:11:35;16.40;99.90
11961;DHT22;6040;49.358;11.140;2023-05-07T07:14:02;16.50;99.90
11961;DHT22;6040;49.358;11.140;2023-05-07T07:16:30;16.50;99.90
11961;DHT22;6040;49.358;11.140;2023-05-07T07:18:57;16.70;99.90
11961;DHT22;6040;49.358;11.140;2023-05-07T07:21:24;16.80;99.90
11961;DHT22;6040;49.358;11.140;2023-05-07T07:23:52;16.70;99.90
11961;DHT22;6040;49.358;11.140;2023-05-07T07:26:19;17.00;99.90
11961;DHT22;6040;49.358;11.140;2023-05-07T07:28:46;17.10;99.90
11961;DHT22;6040;49.358;11.140;2023-05-07T07:31:13;17.00;99.90
11961;DHT22;6040;49.358;11.140;2023-05-07T07:33:41;17.20;99.90
11961;DHT22;6040;49.358;11.140;2023-05-07T07:36:08;17.30;99.90
11961;DHT22;6040;49.358;11.140;2023-05-07T07:38:34;17.50;99.90
11961;DHT22;6040;49.358;11.140;2023-05-07T07:41:03;17.50;99.90
11961;DHT22;6040;49.358;11.140;2023-05-07T07:43:30;17.40;99.90
11961;DHT22;6040;49.358;11.140;2023-05-07T07:45:56;17.30;99.90
11961;DHT22;6040;49.358;11.140;2023-05-07T07:48:23;17.30;99.90
11961;DHT22;6040;49.358;11.140;2023-05-07T07:50:50;17.20;99.90
11961;DHT22;6040;49.358;11.140;2023-05-07T07:53:17;17.30;99.90
11961;DHT22;6040;49.358;11.140;2023-05-07T07:55:44;17.30;99.90
11961;DHT22;6040;49.358;11.140;2023-05-07T07:58:12;17.10;99.90
11961;DHT22;6040;49.358;11.140;2023-05-07T08:00:39;17.00;99.90
11961;DHT22;6040;49.358;11.140;2023-05-07T08:03:09;17.20;99.90
11961;DHT22;6040;49.358;11.140;2023-05-07T08:05:36;17.10;99.90
11961;DHT22;6040;49.358;11.140;2023-05-07T08:08:04;17.20;99.90
11961;DHT22;6040;49.358;11.140;2023-05-07T08:10:31;17.40;99.90
11961;DHT22;6040;49.358;11.140;2023-05-07T08:13:00;17.60;99.90
11961;DHT22;6040;49.358;11.140;2023-05-07T08:15:28;17.70;99.90
11961;DHT22;6040;49.358;11.140;2023-05-07T08:17:55;18.10;99.90
11961;DHT22;6040;49.358;11.140;2023-05-07T08:20:23;18.30;99.90
11961;DHT22;6040;49.358;11.140;2023-05-07T08:22:49;18.60;99.90
11961;DHT22;6040;49.358;11.140;2023-05-07T08:25:17;18.70;99.90
11961;DHT22;6040;49.358;11.140;2023-05-07T08:27:44;18.90;99.90
11961;DHT22;6040;49.358;11.140;2023-05-07T08:30:12;19.10;99.90
11961;DHT22;6040;49.358;11.140;2023-05-07T08:32:40;19.10;99.90
11961;DHT22;6040;49.358;11.140;2023-05-07T08:35:08;19.20;99.90
11961;DHT22;6040;49.358;11.140;2023-05-07T08:37:35;19.30;99.90
11961;DHT22;6040;49.358;11.140;2023-05-07T08:40:02;19.50;99.90
11961;DHT22;6040;49.358;11.140;2023-05-07T08:42:29;19.50;99.90
11961;DHT22;6040;49.358;11.140;2023-05-07T08:44:57;19.60;99.90
11961;DHT22;6040;49.358;11.140;2023-05-07T08:47:32;19.90;99.90
11961;DHT22;6040;49.358;11.140;2023-05-07T08:50:02;20.40;99.90
11961;DHT22;6040;49.358;11.140;2023-05-07T08:52:29;20.90;99.90
11961;DHT22;6040;49.358;11.140;2023-05-07T08:54:56;21.00;99.90
11961;DHT22;6040;49.358;11.140;2023-05-07T08:57:23;21.20;99.90
11961;DHT22;6040;49.358;11.140;2023-05-07T09:02:17;21.60;98.90
11961;DHT22;6040;49.358;11.140;2023-05-07T09:07:13;22.30;98.40
11961;DHT22;6040;49.358;11.140;2023-05-07T09:12:07;22.80;97.10
11961;DHT22;6040;49.358;11.140;2023-05-07T09:14:34;23.30;98.10
11961;DHT22;6040;49.358;11.140;2023-05-07T09:17:00;23.50;95.80
11961;DHT22;6040;49.358;11.140;2023-05-07T09:19:27;23.30;95.40
11961;DHT22;6040;49.358;11.140;2023-05-07T09:22:00;23.30;95.60
11961;DHT22;6040;49.358;11.140;2023-05-07T09:24:29;24.00;95.60
11961;DHT22;6040;49.358;11.140;2023-05-07T09:27:00;23.70;96.30
11961;DHT22;6040;49.358;11.140;2023-05-07T09:29:27;24.00;93.70
11961;DHT22;6040;49.358;11.140;2023-05-07T09:31:55;23.90;93.60
11961;DHT22;6040;49.358;11.140;2023-05-07T09:34:22;23.30;93.50
11961;DHT22;6040;49.358;11.140;2023-05-07T09:36:49;23.10;95.00
11961;DHT22;6040;49.358;11.140;2023-05-07T09:39:16;23.30;95.20
11961;DHT22;6040;49.358;11.140;2023-05-07T09:44:12;23.60;93.20
11961;DHT22;6040;49.358;11.140;2023-05-07T09:46:42;23.40;92.40
11961;DHT22;6040;49.358;11.140;2023-05-07T09:49:13;23.20;94.10
11961;DHT22;6040;49.358;11.140;2023-05-07T09:51:47;23.60;93.60
11961;DHT22;6040;49.358;11.140;2023-05-07T09:54:15;23.50;92.90
11961;DHT22;6040;49.358;11.140;2023-05-07T09:56:42;23.50;92.80
11961;DHT22;6040;49.358;11.140;2023-05-07T09:59:13;23.30;93.30
11961;DHT22;6040;49.358;11.140;2023-05-07T10:01:41;23.00;92.70
11961;DHT22;6040;49.358;11.140;2023-05-07T10:04:09;22.80;93.40
11961;DHT22;6040;49.358;11.140;2023-05-07T10:06:37;23.00;94.20
11961;DHT22;6040;49.358;11.140;2023-05-07T10:09:04;23.20;94.20
11961;DHT22;6040;49.358;11.140;2023-05-07T10:11:32;23.30;94.00
11961;DHT22;6040;49.358;11.140;2023-05-07T10:14:00;23.60;94.80
11961;DHT22;6040;49.358;11.140;2023-05-07T10:16:31;24.00;94.20
11961;DHT22;6040;49.358;11.140;2023-05-07T10:18:58;24.40;91.80
11961;DHT22;6040;49.358;11.140;2023-05-07T10:21:27;24.00;92.30
11961;DHT22;6040;49.358;11.140;2023-05-07T10:23:58;24.10;92.80
11961;DHT22;6040;49.358;11.140;2023-05-07T10:26:27;24.20;93.00
11961;DHT22;6040;49.358;11.140;2023-05-07T10:28:59;24.50;92.70
11961;DHT22;6040;49.358;11.140;2023-05-07T10:31:52;24.70;92.80
11961;DHT22;6040;49.358;11.140;2023-05-07T10:34:24;24.70;91.70
11961;DHT22;6040;49.358;11.140;2023-05-07T10:36:53;24.90;91.20
11961;DHT22;6040;49.358;11.140;2023-05-07T10:39:21;25.10;91.10
11961;DHT22;6040;49.358;11.140;2023-05-07T10:41:48;25.10;90.20
11961;DHT22;6040;49.358;11.140;2023-05-07T10:44:25;24.80;90.10
11961;DHT22;6040;49.358;11.140;2023-05-07T10:47:08;24.70;90.60
11961;DHT22;6040;49.358;11.140;2023-05-07T10:49:36;24.80;90.70
11961;DHT22;6040;49.358;11.140;2023-05-07T10:52:13;24.80;88.10
11961;DHT22;6040;49.358;11.140;2023-05-07T10:54:41;24.90;90.30
11961;DHT22;6040;49.358;11.140;2023-05-07T10:57:35;25.10;90.80
11961;DHT22;6040;49.358;11.140;2023-05-07T11:00:02;25.00;86.70
11961;DHT22;6040;49.358;11.140;2023-05-07T11:03:08;24.80;87.40
11961;DHT22;6040;49.358;11.140;2023-05-07T11:05:35;24.60;85.90
11961;DHT22;6040;49.358;11.140;2023-05-07T11:08:03;24.60;90.20
11961;DHT22;6040;49.358;11.140;2023-05-07T11:10:51;25.20;91.10
11961;DHT22;6040;49.358;11.140;2023-05-07T11:13:18;25.50;85.10
11961;DHT22;6040;49.358;11.140;2023-05-07T11:15:47;25.50;85.30
11961;DHT22;6040;49.358;11.140;2023-05-07T11:18:17;25.20;83.80
11961;DHT22;6040;49.358;11.140;2023-05-07T11:20:55;24.60;85.60
11961;DHT22;6040;49.358;11.140;2023-05-07T11:26:44;25.10;88.00
11961;DHT22;6040;49.358;11.140;2023-05-07T11:29:12;25.70;86.10
11961;DHT22;6040;49.358;11.140;2023-05-07T11:31:39;25.60;83.60
11961;DHT22;6040;49.358;11.140;2023-05-07T11:34:08;25.60;84.20
11961;DHT22;6040;49.358;11.140;2023-05-07T11:36:37;25.50;83.90
11961;DHT22;6040;49.358;11.140;2023-05-07T11:39:23;25.60;83.90
11961;DHT22;6040;49.358;11.140;2023-05-07T11:41:50;26.00;81.80
11961;DHT22;6040;49.358;11.140;2023-05-07T11:44:17;26.30;80.60
11961;DHT22;6040;49.358;11.140;2023-05-07T11:46:44;26.10;83.40
11961;DHT22;6040;49.358;11.140;2023-05-07T11:49:13;25.90;81.30
11961;DHT22;6040;49.358;11.140;2023-05-07T11:51:39;25.20;80.50
11961;DHT22;6040;49.358;11.140;2023-05-07T11:54:08;24.70;80.90
11961;DHT22;6040;49.358;11.140;2023-05-07T11:56:37;24.30;82.50
11961;DHT22;6040;49.358;11.140;2023-05-07T11:59:04;24.20;83.60
11961;DHT22;6040;49.358;11.140;2023-05-07T12:01:31;24.40;85.10
11961;DHT22;6040;49.358;11.140;2023-05-07T12:03:58;25.10;86.30
11961;DHT22;6040;49.358;11.140;2023-05-07T12:06:26;25.60;82.10
11961;DHT22;6040;49.358;11.140;2023-05-07T12:08:53;25.80;80.30
11961;DHT22;6040;49.358;11.140;2023-05-07T12:11:23;26.00;83.50
11961;DHT22;6040;49.358;11.140;2023-05-07T12:13:50;25.90;82.90
11961;DHT22;6040;49.358;11.140;2023-05-07T12:16:17;25.70;82.60
11961;DHT22;6040;49.358;11.140;2023-05-07T12:18:45;25.50;83.70
11961;DHT22;6040;49.358;11.140;2023-05-07T12:21:12;25.40;85.30
11961;DHT22;6040;49.358;11.140;2023-05-07T12:23:41;25.80;87.20
11961;DHT22;6040;49.358;11.140;2023-05-07T12:26:08;26.40;83.20
11961;DHT22;6040;49.358;11.140;2023-05-07T12:28:38;26.50;83.00
11961;DHT22;6040;49.358;11.140;2023-05-07T12:31:06;26.50;82.40
11961;DHT22;6040;49.358;11.140;2023-05-07T12:33:33;26.40;80.20
11961;DHT22;6040;49.358;11.140;2023-05-07T12:36:04;25.70;78.50
11961;DHT22;6040;49.358;11.140;2023-05-07T12:38:35;25.40;80.80
11961;DHT22;6040;49.358;11.140;2023-05-07T12:41:05;25.10;81.10
11961;DHT22;6040;49.358;11.140;2023-05-07T12:43:32;24.70;83.70
11961;DHT22;6040;49.358;11.140;2023-05-07T12:46:01;24.60;85.90
11961;DHT22;6040;49.358;11.140;2023-05-07T12:48:28;24.50;84.60
11961;DHT22;6040;49.358;11.140;2023-05-07T12:50:55;24.40;84.40
11961;DHT22;6040;49.358;11.140;2023-05-07T12:53:24;24.20;85.10
11961;DHT22;6040;49.358;11.140;2023-05-07T12:55:53;24.10;84.70
11961;DHT22;6040;49.358;11.140;2023-05-07T12:58:24;23.80;84.40
11961;DHT22;6040;49.358;11.140;2023-05-07T13:00:52;24.00;87.60
11961;DHT22;6040;49.358;11.140;2023-05-07T13:03:23;24.30;86.70
11961;DHT22;6040;49.358;11.140;2023-05-07T13:05:50;24.20;83.80
11961;DHT22;6040;49.358;11.140;2023-05-07T13:08:28;24.00;86.50
11961;DHT22;6040;49.358;11.140;2023-05-07T13:10:55;24.00;86.70
11961;DHT22;6040;49.358;11.140;2023-05-07T13:13:23;24.20;87.10
11961;DHT22;6040;49.358;11.140;2023-05-07T13:15:50;24.40;86.60
11961;DHT22;6040;49.358;11.140;2023-05-07T13:18:17;24.20;85.10
11961;DHT22;6040;49.358;11.140;2023-05-07T13:20:44;23.90;85.80
11961;DHT22;6040;49.358;11.140;2023-05-07T13:23:11;23.80;86.30
11961;DHT22;6040;49.358;11.140;2023-05-07T13:25:37;23.80;85.70
11961;DHT22;6040;49.358;11.140;2023-05-07T13:28:04;23.80;83.50
11961;DHT22;6040;49.358;11.140;2023-05-07T13:30:32;23.70;85.00
11961;DHT22;6040;49.358;11.140;2023-05-07T13:33:00;23.70;85.40
11961;DHT22;6040;49.358;11.140;2023-05-07T13:35:27;23.70;85.10
11961;DHT22;6040;49.358;11.140;2023-05-07T13:37:54;23.70;85.80
11961;DHT22;6040;49.358;11.140;2023-05-07T13:40:21;23.80;86.80
11961;DHT22;6040;49.358;11.140;2023-05-07T13:42:48;24.00;84.80
11961;DHT22;6040;49.358;11.140;2023-05-07T13:45:15;24.00;83.00
11961;DHT22;6040;49.358;11.140;2023-05-07T13:47:44;23.80;83.10
11961;DHT22;6040;49.358;11.140;2023-05-07T13:50:11;23.60;83.90
11961;DHT22;6040;49.358;11.140;2023-05-07T13:52:40;23.30;84.10
11961;DHT22;6040;49.358;11.140;2023-05-07T13:55:08;23.20;84.80
11961;DHT22;6040;49.358;11.140;2023-05-07T13:57:35;23.30;84.90
11961;DHT22;6040;49.358;11.140;2023-05-07T14:00:03;23.50;86.20
11961;DHT22;6040;49.358;11.140;2023-05-07T14:02:30;23.50;84.30
11961;DHT22;6040;49.358;11.140;2023-05-07T14:04:58;23.70;84.80
11961;DHT22;6040;49.358;11.140;2023-05-07T14:07:25;23.70;84.50
11961;DHT22;6040;49.358;11.140;2023-05-07T14:09:52;23.70;85.30
11961;DHT22;6040;49.358;11.140;2023-05-07T14:12:18;24.10;85.00
11961;DHT22;6040;49.358;11.140;2023-05-07T14:14:45;24.20;85.70
11961;DHT22;6040;49.358;11.140;2023-05-07T14:17:12;24.40;85.60
11961;DHT22;6040;49.358;11.140;2023-05-07T14:19:39;24.40;85.00
11961;DHT22;6040;49.358;11.140;2023-05-07T14:22:07;24.60;85.20
11961;DHT22;6040;49.358;11.140;2023-05-07T14:24:34;24.60;82.00
11961;DHT22;6040;49.358;11.140;2023-05-07T14:27:01;24.20;83.80
11961;DHT22;6040;49.358;11.140;2023-05-07T14:29:27;24.10;83.90
11961;DHT22;6040;49.358;11.140;2023-05-07T14:31:54;23.90;83.20
11961;DHT22;6040;49.358;11.140;2023-05-07T14:34:21;23.60;84.00
11961;DHT22;6040;49.358;11.140;2023-05-07T14:36:48;23.60;84.90
11961;DHT22;6040;49.358;11.140;2023-05-07T14:39:16;23.40;85.60
11961;DHT22;6040;49.358;11.140;2023-05-07T14:41:43;23.30;85.70
11961;DHT22;6040;49.358;11.140;2023-05-07T14:44:10;23.30;87.00
11961;DHT22;6040;49.358;11.140;2023-05-07T14:46:36;23.40;87.20
11961;DHT22;6040;49.358;11.140;2023-05-07T14:49:03;23.10;88.10
11961;DHT22;6040;49.358;11.140;2023-05-07T14:51:31;22.90;89.20
11961;DHT22;6040;49.358;11.140;2023-05-07T14:53:58;22.90;89.90
11961;DHT22;6040;49.358;11.140;2023-05-07T14:56:27;22.80;89.90
11961;DHT22;6040;49.358;11.140;2023-05-07T14:58:53;22.50;90.00
11961;DHT22;6040;49.358;11.140;2023-05-07T15:01:20;22.50;89.50
11961;DHT22;6040;49.358;11.140;2023-05-07T15:03:47;22.40;89.80
11961;DHT22;6040;49.358;11.140;2023-05-07T15:06:14;22.50;90.50
11961;DHT22;6040;49.358;11.140;2023-05-07T15:08:41;22.50;90.50
11961;DHT22;6040;49.358;11.140;2023-05-07T15:11:08;22.60;90.10
11961;DHT22;6040;49.358;11.140;2023-05-07T15:13:36;22.70;88.70
11961;DHT22;6040;49.358;11.140;2023-05-07T15:16:03;22.60;90.20
11961;DHT22;6040;49.358;11.140;2023-05-07T15:18:30;22.50;89.00
11961;DHT22;6040;49.358;11.140;2023-05-07T15:20:56;22.40;90.00
11961;DHT22;6040;49.358;11.140;2023-05-07T15:23:23;22.40;90.30
11961;DHT22;6040;49.358;11.140;2023-05-07T15:25:51;22.30;89.80
11961;DHT22;6040;49.358;11.140;2023-05-07T15:28:18;22.20;89.40
11961;DHT22;6040;49.358;11.140;2023-05-07T15:30:46;22.20;90.40
11961;DHT22;6040;49.358;11.140;2023-05-07T15:33:13;22.20;90.20
11961;DHT22;6040;49.358;11.140;2023-05-07T15:35:40;22.30;90.60
11961;DHT22;6040;49.358;11.140;2023-05-07T15:38:07;22.30;90.40
11961;DHT22;6040;49.358;11.140;2023-05-07T15:40:34;22.20;90.30
11961;DHT22;6040;49.358;11.140;2023-05-07T15:43:03;22.20;90.60
11961;DHT22;6040;49.358;11.140;2023-05-07T15:45:30;22.20;90.60
11961;DHT22;6040;49.358;11.140;2023-05-07T15:47:58;22.20;90.80